sensor_id;sensor_type;location;lat;lon;timestamp;P1;durP1;ratioP1;P2;durP2;ratioP2
72645;SDS011;60687;53.876;10.674;2023-05-07T00:08:33;18.30;;;10.97;;
72645;SDS011;60687;53.876;10.674;2023-05-07T00:18:37;16.25;;;9.18;;
72645;SDS011;60687;53.876;10.674;2023-05-07T00:28:40;19.97;;;11.00;;
72645;SDS011;60687;53.876;10.674;2023-05-07T00:38:44;16.90;;;10.07;;
72645;SDS011;60687;53.876;10.674;2023-05-07T00:48:46;17.77;;;11.27;;
72645;SDS011;60687;53.876;10.674;2023-05-07T00:58:50;23.40;;;12.52;;
72645;SDS011;60687;53.876;10.674;2023-05-07T01:08:53;15.67;;;9.10;;
72645;SDS011;60687;53.876;10.674;2023-05-07T01:18:58;16.47;;;8.97;;
72645;SDS011;60687;53.876;10.674;2023-05-07T01:29:03;13.93;;;8.40;;
72645;SDS011;60687;53.876;10.674;2023-05-07T01:39:05;16.73;;;8.80;;
72645;SDS011;60687;53.876;10.674;2023-05-07T01:49:10;15.53;;;9.23;;
72645;SDS011;60687;53.876;10.674;2023-05-07T01:59:12;13.43;;;7.07;;
72645;SDS011;60687;53.876;10.674;2023-05-07T02:09:16;14.40;;;8.00;;
72645;SDS011;60687;53.876;10.674;2023-05-07T02:19:20;14.50;;;8.33;;
72645;SDS011;60687;53.876;10.674;2023-05-07T02:29:24;11.90;;;6.97;;
72645;SDS011;60687;53.876;10.674;2023-05-07T02:39:27;12.52;;;7.32;;
72645;SDS011;60687;53.876;10.674;2023-05-07T02:49:32;11.13;;;5.77;;
72645;SDS011;60687;53.876;10.674;2023-05-07T02:59:37;12.07;;;6.73;;
72645;SDS011;60687;53.876;10.674;2023-05-07T03:09:41;14.70;;;8.80;;
72645;SDS011;60687;53.876;10.674;2023-05-07T03:19:44;17.97;;;10.13;;
72645;SDS011;60687;53.876;10.674;2023-05-07T03:29:47;13.30;;;7.70;;
72645;SDS011;60687;53.876;10.674;2023-05-07T03:39:50;11.93;;;7.32;;
72645;SDS011;60687;53.876;10.674;2023-05-07T03:49:55;12.90;;;7.37;;
72645;SDS011;60687;53.876;10.674;2023-05-07T03:59:58;13.43;;;8.10;;
72645;SDS011;60687;53.876;10.674;2023-05-07T04:10:02;12.75;;;7.18;;
72645;SDS011;60687;53.876;10.674;2023-05-07T04:20:08;15.13;;;8.15;;
72645;SDS011;60687;53.876;10.674;2023-05-07T04:30:14;12.67;;;7.73;;
72645;SDS011;60687;53.876;10.674;2023-05-07T04:40:17;12.30;;;6.83;;
72645;SDS011;60687;53.876;10.674;2023-05-07T04:50:21;13.05;;;7.40;;
72645;SDS011;60687;53.876;10.674;2023-05-07T05:00:26;13.97;;;8.43;;
72645;SDS011;60687;53.876;10.674;2023-05-07T05:10:31;12.17;;;6.77;;
72645;SDS011;60687;53.876;10.674;2023-05-07T05:20:34;14.00;;;7.80;;
72645;SDS011;60687;53.876;10.674;2023-05-07T05:30:38;13.53;;;7.17;;
72645;SDS011;60687;53.876;10.674;2023-05-07T05:40:42;11.43;;;6.43;;
72645;SDS011;60687;53.876;10.674;2023-05-07T05:50:46;11.85;;;7.03;;
72645;SDS011;60687;53.876;10.674;2023-05-07T06:00:50;10.43;;;5.88;;
72645;SDS011;60687;53.876;10.674;2023-05-07T06:10:57;12.43;;;7.07;;
72645;SDS011;60687;53.876;10.674;2023-05-07T06:21:01;9.00;;;4.63;;
72645;SDS011;60687;53.876;10.674;2023-05-07T06:31:14;10.85;;;6.13;;
72645;SDS011;60687;53.876;10.674;2023-05-07T06:41:24;11.93;;;6.23;;
72645;SDS011;60687;53.876;10.674;2023-05-07T06:51:28;11.23;;;6.87;;
72645;SDS011;60687;53.876;10.674;2023-05-07T07:01:36;11.75;;;5.90;;
72645;SDS011;60687;53.876;10.674;2023-05-07T07:11:42;8.93;;;4.80;;
72645;SDS011;60687;53.876;10.674;2023-05-07T07:21:45;10.57;;;6.03;;
72645;SDS011;60687;53.876;10.674;2023-05-07T07:31:49;8.73;;;5.03;;
72645;SDS011;60687;53.876;10.674;2023-05-07T07:41:53;11.18;;;5.82;;
72645;SDS011;60687;53.876;10.674;2023-05-07T07:52:02;8.73;;;4.90;;
72645;SDS011;60687;53.876;10.674;2023-05-07T08:02:06;9.97;;;5.30;;
72645;SDS011;60687;53.876;10.674;2023-05-07T08:22:30;11.70;;;6.60;;
72645;SDS011;60687;53.876;10.674;2023-05-07T08:32:37;10.87;;;6.20;;
72645;SDS011;60687;53.876;10.674;2023-05-07T08:42:39;12.23;;;6.90;;
72645;SDS011;60687;53.876;10.674;2023-05-07T08:52:45;10.40;;;5.00;;
72645;SDS011;60687;53.876;10.674;2023-05-07T09:02:47;12.40;;;5.60;;
72645;SDS011;60687;53.876;10.674;2023-05-07T09:12:51;10.13;;;5.13;;
72645;SDS011;60687;53.876;10.674;2023-05-07T09:22:55;8.38;;;4.63;;
72645;SDS011;60687;53.876;10.674;2023-05-07T09:33:01;8.73;;;4.60;;
72645;SDS011;60687;53.876;10.674;2023-05-07T09:43:09;8.03;;;4.53;;
72645;SDS011;60687;53.876;10.674;2023-05-07T09:53:17;8.18;;;4.38;;
72645;SDS011;60687;53.876;10.674;2023-05-07T10:03:21;7.93;;;4.10;;
72645;SDS011;60687;53.876;10.674;2023-05-07T10:13:35;7.50;;;3.53;;
72645;SDS011;60687;53.876;10.674;2023-05-07T10:23:44;7.15;;;3.72;;
72645;SDS011;60687;53.876;10.674;2023-05-07T10:33:48;6.60;;;3.00;;
72645;SDS011;60687;53.876;10.674;2023-05-07T10:43:55;6.70;;;3.30;;
72645;SDS011;60687;53.876;10.674;2023-05-07T11:04:40;6.50;;;2.55;;
72645;SDS011;60687;53.876;10.674;2023-05-07T11:15:09;8.30;;;2.57;;
72645;SDS011;60687;53.876;10.674;2023-05-07T11:25:17;5.97;;;2.50;;
72645;SDS011;60687;53.876;10.674;2023-05-07T11:35:26;5.72;;;1.83;;
72645;SDS011;60687;53.876;10.674;2023-05-07T11:45:29;6.77;;;2.17;;
72645;SDS011;60687;53.876;10.674;2023-05-07T11:55:33;5.60;;;1.60;;
72645;SDS011;60687;53.876;10.674;2023-05-07T12:05:36;5.30;;;1.70;;
72645;SDS011;60687;53.876;10.674;2023-05-07T12:15:43;5.07;;;1.87;;
72645;SDS011;60687;53.876;10.674;2023-05-07T12:25:45;5.43;;;2.00;;
72645;SDS011;60687;53.876;10.674;2023-05-07T12:35:49;7.13;;;1.85;;
72645;SDS011;60687;53.876;10.674;2023-05-07T12:45:53;5.72;;;2.10;;
72645;SDS011;60687;53.876;10.674;2023-05-07T12:56:00;6.73;;;2.23;;
72645;SDS011;60687;53.876;10.674;2023-05-07T13:06:02;5.40;;;1.50;;
72645;SDS011;60687;53.876;10.674;2023-05-07T13:16:08;7.47;;;1.75;;
72645;SDS011;60687;53.876;10.674;2023-05-07T13:26:12;7.17;;;1.87;;
72645;SDS011;60687;53.876;10.674;2023-05-07T13:36:16;6.00;;;1.73;;
72645;SDS011;60687;53.876;10.674;2023-05-07T13:46:19;8.75;;;2.17;;
72645;SDS011;60687;53.876;10.674;2023-05-07T13:56:22;5.27;;;1.73;;
72645;SDS011;60687;53.876;10.674;2023-05-07T14:06:25;5.53;;;1.97;;
72645;SDS011;60687;53.876;10.674;2023-05-07T14:16:29;5.53;;;1.90;;
72645;SDS011;60687;53.876;10.674;2023-05-07T14:26:31;6.10;;;2.25;;
72645;SDS011;60687;53.876;10.674;2023-05-07T14:36:35;6.77;;;2.23;;
72645;SDS011;60687;53.876;10.674;2023-05-07T14:46:38;6.73;;;2.17;;
72645;SDS011;60687;53.876;10.674;2023-05-07T14:56:42;5.60;;;1.92;;
72645;SDS011;60687;53.876;10.674;2023-05-07T15:06:44;5.40;;;1.90;;
72645;SDS011;60687;53.876;10.674;2023-05-07T15:16:49;6.13;;;2.27;;
72645;SDS011;60687;53.876;10.674;2023-05-07T15:26:51;6.82;;;2.30;;
72645;SDS011;60687;53.876;10.674;2023-05-07T15:36:56;5.97;;;2.17;;
72645;SDS011;60687;53.876;10.674;2023-05-07T15:46:58;6.33;;;2.37;;
72645;SDS011;60687;53.876;10.674;2023-05-07T15:57:02;8.90;;;2.72;;
72645;SDS011;60687;53.876;10.674;2023-05-07T16:07:07;7.25;;;2.35;;
72645;SDS011;60687;53.876;10.674;2023-05-07T16:17:11;6.33;;;2.37;;
72645;SDS011;60687;53.876;10.674;2023-05-07T16:27:13;5.90;;;2.10;;
72645;SDS011;60687;53.876;10.674;2023-05-07T16:37:17;7.22;;;2.00;;
72645;SDS011;60687;53.876;10.674;2023-05-07T16:47:19;8.07;;;2.40;;
72645;SDS011;60687;53.876;10.674;2023-05-07T16:57:24;7.37;;;2.40;;
72645;SDS011;60687;53.876;10.674;2023-05-07T17:07:26;5.70;;;2.10;;
72645;SDS011;60687;53.876;10.674;2023-05-07T17:17:30;5.63;;;1.93;;
72645;SDS011;60687;53.876;10.674;2023-05-07T17:27:33;5.43;;;1.57;;
72645;SDS011;60687;53.876;10.674;2023-05-07T17:37:36;6.65;;;1.90;;
72645;SDS011;60687;53.876;10.674;2023-05-07T17:47:38;5.65;;;2.40;;
72645;SDS011;60687;53.876;10.674;2023-05-07T17:57:42;5.87;;;1.70;;
72645;SDS011;60687;53.876;10.674;2023-05-07T18:07:44;5.30;;;1.83;;
72645;SDS011;60687;53.876;10.674;2023-05-07T18:17:48;6.28;;;1.88;;
72645;SDS011;60687;53.876;10.674;2023-05-07T18:27:50;5.33;;;1.90;;
72645;SDS011;60687;53.876;10.674;2023-05-07T18:37:53;6.00;;;1.80;;
72645;SDS011;60687;53.876;10.674;2023-05-07T18:47:55;5.45;;;1.77;;
72645;SDS011;60687;53.876;10.674;2023-05-07T18:57:59;4.77;;;1.60;;
72645;SDS011;60687;53.876;10.674;2023-05-07T19:08:01;5.83;;;1.67;;
72645;SDS011;60687;53.876;10.674;2023-05-07T19:18:05;5.57;;;2.00;;
72645;SDS011;60687;53.876;10.674;2023-05-07T19:28:08;5.68;;;1.90;;
72645;SDS011;60687;53.876;10.674;2023-05-07T19:38:13;5.90;;;1.90;;
72645;SDS011;60687;53.876;10.674;2023-05-07T19:48:15;6.50;;;2.20;;
72645;SDS011;60687;53.876;10.674;2023-05-07T19:58:19;6.80;;;2.10;;
72645;SDS011;60687;53.876;10.674;2023-05-07T20:08:21;6.23;;;2.23;;
72645;SDS011;60687;53.876;10.674;2023-05-07T20:18:26;5.93;;;1.90;;
72645;SDS011;60687;53.876;10.674;2023-05-07T20:28:29;6.38;;;2.20;;
72645;SDS011;60687;53.876;10.674;2023-05-07T20:38:33;6.10;;;2.10;;
72645;SDS011;60687;53.876;10.674;2023-05-07T20:48:36;6.80;;;2.13;;
72645;SDS011;60687;53.876;10.674;2023-05-07T20:58:39;6.03;;;2.38;;
72645;SDS011;60687;53.876;10.674;2023-05-07T21:08:42;6.97;;;2.17;;
72645;SDS011;60687;53.876;10.674;2023-05-07T21:18:46;5.60;;;1.90;;
72645;SDS011;60687;53.876;10.674;2023-05-07T21:28:48;6.10;;;2.30;;
72645;SDS011;60687;53.876;10.674;2023-05-07T21:38:52;6.38;;;2.30;;
72645;SDS011;60687;53.876;10.674;2023-05-07T21:48:54;6.40;;;2.63;;
72645;SDS011;60687;53.876;10.674;2023-05-07T21:58:59;6.90;;;2.73;;
72645;SDS011;60687;53.876;10.674;2023-05-07T22:09:02;7.93;;;2.70;;
72645;SDS011;60687;53.876;10.674;2023-05-07T22:19:05;7.40;;;2.67;;
72645;SDS011;60687;53.876;10.674;2023-05-07T22:29:08;7.40;;;3.90;;
72645;SDS011;60687;53.876;10.674;2023-05-07T22:39:11;9.25;;;3.63;;
72645;SDS011;60687;53.876;10.674;2023-05-07T22:49:13;7.18;;;2.67;;
72645;SDS011;60687;53.876;10.674;2023-05-07T22:59:17;6.70;;;2.60;;
72645;SDS011;60687;53.876;10.674;2023-05-07T23:09:19;8.30;;;3.17;;
72645;SDS011;60687;53.876;10.674;2023-05-07T23:19:23;7.20;;;2.85;;
72645;SDS011;60687;53.876;10.674;2023-05-07T23:29:25;8.10;;;3.07;;
72645;SDS011;60687;53.876;10.674;2023-05-07T23:39:29;6.37;;;2.50;;
72645;SDS011;60687;53.876;10.674;2023-05-07T23:49:33;7.07;;;3.08;;
72645;SDS011;60687;53.876;10.674;2023-05-07T23:59:36;5.97;;;2.50;;
